Time,TemperatureF,DewpointF,PressureIn,WindDirection,WindDirectionDegrees,WindSpeedMPH,WindSpeedGustMPH,Humidity,HourlyPrecipIn,Conditions,Clouds,dailyrainin,SoftwareType,DateUTC
2013-08-29 00:05:00,73.1,68.2,30.11,North,0,0.0,0.0,81,0.00,NA,NA,0.00,meteo_script,2013-08-29 05:05:00,
2013-08-29 00:35:00,73.1,67.8,30.10,North,0,0.0,0.0,79,0.00,NA,NA,0.00,meteo_script,2013-08-29 05:35:00,
2013-08-29 01:05:00,71.9,66.8,30.10,North,0,0.0,0.0,80,0.00,NA,NA,0.00,meteo_script,2013-08-29 06:05:00,
2013-08-29 01:35:00,71.7,66.6,30.10,North,0,0.0,0.0,80,0.00,NA,NA,0.00,meteo_script,2013-08-29 06:35:00,
2013-08-29 02:05:00,71.0,65.9,30.11,North,0,0.0,0.0,80,0.00,NA,NA,0.00,meteo_script,2013-08-29 07:05:00,
2013-08-29 02:35:00,70.6,65.5,30.10,North,0,0.0,0.0,80,0.00,NA,NA,0.00,meteo_script,2013-08-29 07:35:00,
2013-08-29 03:05:00,70.3,65.5,30.11,North,0,0.0,0.0,81,0.00,NA,NA,0.00,meteo_script,2013-08-29 08:05:00,
2013-08-29 03:35:00,70.1,65.3,30.10,North,0,0.0,0.0,81,0.00,NA,NA,0.00,meteo_script,2013-08-29 08:35:00,
2013-08-29 04:05:00,69.7,65.2,30.11,North,0,0.0,0.0,82,0.00,NA,NA,0.00,meteo_script,2013-08-29 09:05:00,
2013-08-29 04:35:00,69.0,64.8,30.10,North,0,0.0,0.0,83,0.00,NA,NA,0.00,meteo_script,2013-08-29 09:35:00,
2013-08-29 05:05:00,68.4,64.5,30.10,North,0,0.0,0.0,84,0.00,NA,NA,0.00,meteo_script,2013-08-29 10:05:00,
2013-08-29 05:35:00,67.9,64.0,30.10,North,0,0.0,0.0,84,0.00,NA,NA,0.00,meteo_script,2013-08-29 10:35:00,
2013-08-29 06:05:00,67.4,63.7,30.11,North,0,0.0,0.0,85,0.00,NA,NA,0.00,meteo_script,2013-08-29 11:05:00,
2013-08-29 06:35:00,66.7,63.3,30.11,North,0,0.0,0.0,86,0.00,NA,NA,0.00,meteo_script,2013-08-29 11:35:00,
2013-08-29 07:05:00,66.6,63.5,30.12,North,0,0.0,0.0,87,0.00,NA,NA,0.00,meteo_script,2013-08-29 12:05:00,
2013-08-29 07:35:00,66.7,63.6,30.12,North,0,0.0,0.0,87,0.00,NA,NA,0.00,meteo_script,2013-08-29 12:35:00,
2013-08-29 08:05:00,67.5,64.6,30.12,North,0,0.0,0.0,88,0.00,NA,NA,0.00,meteo_script,2013-08-29 13:05:00,
2013-08-29 08:35:00,68.9,65.7,30.14,North,0,0.0,0.0,87,0.00,NA,NA,0.00,meteo_script,2013-08-29 13:35:00,
2013-08-29 09:05:00,70.6,66.6,30.14,North,0,0.0,0.0,84,0.00,NA,NA,0.00,meteo_script,2013-08-29 14:05:00,
2013-08-29 09:35:00,72.9,67.7,30.14,SSE,156,0.2,1.0,80,0.00,NA,NA,0.00,meteo_script,2013-08-29 14:35:00,
2013-08-29 10:05:00,75.8,69.3,30.14,SSW,200,0.0,1.0,75,0.00,NA,NA,0.00,meteo_script,2013-08-29 15:05:00,
2013-08-29 10:35:00,77.7,69.9,30.14,SW,222,1.3,4.0,72,0.00,NA,NA,0.00,meteo_script,2013-08-29 15:35:00,
2013-08-29 11:05:00,79.7,70.8,30.14,SSW,213,2.1,5.0,68,0.00,NA,NA,0.00,meteo_script,2013-08-29 16:05:00,
2013-08-29 11:35:00,81.0,70.8,30.14,SW,219,0.8,2.0,65,0.00,NA,NA,0.00,meteo_script,2013-08-29 16:35:00,
2013-08-29 12:05:00,81.7,71.3,30.14,SW,218,2.3,5.0,65,0.00,NA,NA,0.00,meteo_script,2013-08-29 17:05:00,
2013-08-29 12:35:00,82.8,70.9,30.14,SSW,202,1.5,5.0,61,0.00,NA,NA,0.00,meteo_script,2013-08-29 17:35:00,
2013-08-29 13:05:00,84.2,70.3,30.13,SSW,210,1.0,3.0,56,0.00,NA,NA,0.00,meteo_script,2013-08-29 18:05:00,
2013-08-29 13:35:00,85.6,71.1,30.12,SW,223,2.4,5.0,55,0.00,NA,NA,0.00,meteo_script,2013-08-29 18:35:00,
2013-08-29 14:05:00,87.1,71.1,30.12,South,180,1.7,7.0,52,0.00,NA,NA,0.00,meteo_script,2013-08-29 19:05:00,
2013-08-29 14:35:00,87.5,70.7,30.10,SW,217,0.4,2.0,50,0.00,NA,NA,0.00,meteo_script,2013-08-29 19:35:00,
2013-08-29 15:05:00,88.2,70.5,30.10,SSW,192,2.3,4.0,48,0.00,NA,NA,0.00,meteo_script,2013-08-29 20:05:00,
2013-08-29 15:35:00,88.2,69.9,30.08,SSW,197,1.3,5.0,47,0.00,NA,NA,0.00,meteo_script,2013-08-29 20:35:00,
2013-08-29 16:05:00,88.7,70.3,30.07,South,186,2.9,7.0,47,0.00,NA,NA,0.00,meteo_script,2013-08-29 21:05:00,
2013-08-29 16:35:00,88.1,70.6,30.07,South,178,1.4,3.0,49,0.00,NA,NA,0.00,meteo_script,2013-08-29 21:35:00,
2013-08-29 17:05:00,88.2,70.5,30.07,South,185,0.8,4.0,48,0.00,NA,NA,0.00,meteo_script,2013-08-29 22:05:00,
2013-08-29 17:35:00,87.6,70.5,30.06,SSW,207,0.1,2.0,49,0.00,NA,NA,0.00,meteo_script,2013-08-29 22:35:00,
2013-08-29 18:05:00,87.7,70.5,30.06,South,183,1.1,4.0,49,0.00,NA,NA,0.00,meteo_script,2013-08-29 23:05:00,
2013-08-29 18:35:00,87.0,69.7,30.04,SSW,196,0.7,3.0,49,0.00,NA,NA,0.00,meteo_script,2013-08-29 23:35:00,
2013-08-29 19:05:00,85.4,69.5,30.04,SSW,208,1.4,3.0,51,0.00,NA,NA,0.00,meteo_script,2013-08-30 00:05:00,
2013-08-29 19:35:00,84.0,69.6,30.04,South,188,0.2,1.0,55,0.00,NA,NA,0.00,meteo_script,2013-08-30 00:35:00,
2013-08-29 20:05:00,81.9,68.9,30.04,North,0,0.0,0.0,58,0.00,NA,NA,0.00,meteo_script,2013-08-30 01:05:00,
2013-08-29 20:35:00,80.4,67.9,30.04,South,190,0.1,1.0,59,0.00,NA,NA,0.00,meteo_script,2013-08-30 01:35:00,
2013-08-29 21:05:00,78.9,67.6,30.04,SSW,211,1.0,3.0,62,0.00,NA,NA,0.00,meteo_script,2013-08-30 02:05:00,
2013-08-29 21:35:00,77.9,67.7,30.04,SW,215,1.0,3.0,64,0.00,NA,NA,0.00,meteo_script,2013-08-30 02:35:00,
2013-08-29 22:05:00,77.5,67.8,30.05,SSW,213,0.9,3.0,66,0.00,NA,NA,0.00,meteo_script,2013-08-30 03:05:00,
2013-08-29 22:35:00,76.8,68.1,30.04,SSW,212,0.1,1.0,69,0.00,NA,NA,0.00,meteo_script,2013-08-30 03:35:00,
2013-08-29 23:05:00,76.2,68.2,30.04,SW,217,2.4,6.0,71,0.00,NA,NA,0.00,meteo_script,2013-08-30 04:05:00,
2013-08-29 23:35:00,75.6,68.0,30.04,SW,214,1.5,5.0,72,0.00,NA,NA,0.00,meteo_script,2013-08-30 04:35:00,